메인 페이지
METAR-TAF:

METAR-TAF

공항 :

퀴라소, 네덜란드령 안틸레스

위도: 12-12N, 경도: 068-58W, 고도: 9m

현재 날씨관측

예보는 2 시간 57분 전, 15:00시(UTC)에 발표되었습니다.
15kt
온도 32°C
습도 63%
기압 1013 hPa
시정 10km 이상
고도 2200ft 상공 구름 보통

METAR: TNCC 251500Z 10015KT 9999 SCT022 32/24 Q1013 NOSIG

시각: 13:57 (17:57 UTC)

예보

예보는 1 시간 57분 전, 16:00시(UTC)에 발표되었습니다.
예보 대상 시간: 25일 18시부터 26일 18시까지 (UTC)
동남동17kt
시정 10km 이상
고도 2500ft 상공 구름 보통

TAF: TNCC 251600Z 2518/2618 11017KT 9999 SCT025

4,000개 이상의 공항 관측 자료 및 예보 (METAR 및 TAF 보고).

지도상에서 검색 가능한 기상관측소가 노란 점과 빨간 점으로 표시되어 있습니다.

기상관측소 명을 보려면 표시 위로 마우스를 이동하세요.

날씨 관측과 예보를 보려면 클릭하세요.

지도 변경 : 확대하려면 엑스 표시가 있는 녹색 버튼, 축소하려면 빼기 표시가 있는 녹색 버튼, 다음 페이지의 지도를 보려면 녹색 화살표를 클릭하세요.


METAR-TAF: